• Join FlightAware (Why Join?)
  • Login
  • US Flag 
10:48AM EDT


 

Airport Tracker/Info


-or-


 

Live Flight TrackerFlight Track Log ✈ N76RP ✈ 19-Jul-2013 ✈ KTEB - KFRG

Flight Track Log - Related Links

Times and Time Zones

All times are in EDT time to prevent confusion due to time zone crossing. See the N76RP flight status page for this flight to view local times or setup timezone preferences in your user account.

Time Position Orientation Groundspeed Altitude Reporting Facility
EDT Latitude Longitude Course Direction KTS MPH feet Rate Location/Type
04:08PM 40.8167 -74.1333 75° East 208 239 1,500  Level New York TRACON
04:09PM 40.8000 -74.2167 255° West 238 274 3,100 1,500 Climbing New York TRACON
04:10PM 40.8000 -74.3167 270° West 277 319 4,600 1,440 Climbing New York TRACON
04:11PM 40.8667 -74.3167 360° North 292 336 6,000 660 Climbing New York TRACON
04:12PM 40.9500 -74.2833 17° North 294 338 6,000  Level New York TRACON
04:13PM 41.1513 -74.1268 75° East  Level FlightAware Approximate
04:13PM 41.0167 -74.2333 30° Northeast 292 336 6,000  Level New York TRACON
04:14PM 41.0833 -74.1833 29° Northeast 294 338 6,000  Level New York TRACON
04:15PM 41.1500 -74.1333 29° Northeast 300 345 6,000 -240 Level New York TRACON
04:16PM 41.1833 -74.0167 69° East 307 353 5,600 -540 Descending New York TRACON
04:17PM 41.2000 -73.9167 77° East 301 346 5,000 -300 Descending New York TRACON
04:18PM 41.2333 -73.8000 69° East 303 349 5,000  Level New York TRACON
04:19PM 41.2500 -73.7000 77° East 301 346 5,000  Level New York TRACON
04:20PM 41.2833 -73.6000 66° East 301 346 5,000  Level New York TRACON
04:21PM 41.2667 -73.4833 101° East 295 339 5,000  Level New York TRACON
04:22PM 41.2500 -73.3833 102° East 295 339 5,000 -480 Level New York TRACON
04:23PM 41.2500 -73.2833 90° East 298 343 4,200 -900 Descending New York TRACON
04:24PM 41.2287 -73.2194 114° Southeast  Level FlightAware Approximate
04:31PM 40.9625 -73.0807 220° Southwest  Level FlightAware Approximate
04:32PM 40.9222 -73.1254 220° Southwest  Level FlightAware Approximate
04:33PM 40.8815 -73.1692 225° Southwest  Level FlightAware Approximate
04:34PM 40.8444 -73.2186 225° Southwest  Level FlightAware Approximate
04:35PM 40.8140 -73.2693 217° Southwest  Level FlightAware Approximate
04:36PM 40.7721 -73.3112 217° Southwest  Level FlightAware Approximate
04:37PM 40.7419 -73.3621 229° Southwest  Level FlightAware Approximate
04:38PM 40.7167 -73.4000 229° Southwest  Level FlightAware Approximate
04:39PM 40.7288 -73.4134 229° Southwest  Level Estimated
04:40PM 40.7288 -73.4134 229° Southwest  Level Estimated
04:41PM 40.7288 -73.4134 229° Southwest  Level Estimated
04:42PM 40.7288 -73.4134 229° Southwest  Level Estimated
04:43PM 40.7288 -73.4134 229° Southwest  Level Estimated
04:44PM 40.7288 -73.4134 229° Southwest  Level Estimated
04:45PM 40.7288 -73.4134 229° Southwest  Level Estimated
04:46PM 40.7288 -73.4134 229° Southwest  Level Estimated
04:47PM 40.7288 -73.4134 229° Southwest  Level Estimated
04:48PM 40.7288 -73.4134 229° Southwest  Level Estimated
04:49PM 40.7288 -73.4134 229° Southwest  Level Estimated
04:50PM 40.7288 -73.4134 229° Southwest  Level Estimated
04:51PM 40.7288 -73.4134 229° Southwest  Level Estimated
04:52PM 40.7288 -73.4134 229° Southwest  Level Estimated
04:53PM 40.7288 -73.4134 229° Southwest  Level Estimated
04:54PM 40.7288 -73.4134 229° Southwest  Level Estimated
04:55PM 40.7288 -73.4134 229° Southwest  Level Estimated
04:56PM 40.7288 -73.4134 229° Southwest  Level Estimated